createdAt,value
2023-03-30T00:00:19.144Z,14.00
2023-03-30T00:02:22.567Z,13.90
2023-03-30T00:04:26.651Z,13.90
2023-03-30T00:06:29.220Z,13.90
2023-03-30T00:08:32.758Z,13.80
2023-03-30T00:10:37.060Z,13.80
2023-03-30T00:12:40.169Z,13.80
2023-03-30T00:14:42.720Z,13.80
2023-03-30T00:16:45.421Z,13.90
2023-03-30T00:18:48.354Z,13.90
2023-03-30T00:20:51.828Z,13.80
2023-03-30T00:22:54.384Z,13.80
2023-03-30T00:24:57.059Z,13.80
2023-03-30T00:27:00.134Z,13.80
2023-03-30T00:29:02.938Z,13.80
2023-03-30T00:31:05.640Z,13.80
2023-03-30T00:33:08.534Z,13.80
2023-03-30T00:37:30.253Z,13.80
2023-03-30T00:39:33.223Z,13.80
2023-03-30T00:41:36.298Z,13.90
2023-03-30T00:43:55.060Z,13.80
2023-03-30T00:45:57.561Z,13.80
2023-03-30T00:48:02.535Z,13.90
2023-03-30T00:50:07.384Z,14.00
2023-03-30T00:52:10.584Z,14.00
2023-03-30T00:54:14.900Z,14.10
2023-03-30T00:56:19.068Z,14.10
2023-03-30T00:58:22.538Z,14.10
2023-03-30T01:00:25.152Z,14.10
2023-03-30T01:02:30.131Z,14.10
2023-03-30T01:04:33.124Z,14.10
2023-03-30T01:06:36.197Z,14.00
2023-03-30T01:08:40.365Z,14.10
2023-03-30T01:10:43.860Z,14.10
2023-03-30T01:12:46.878Z,14.10
2023-03-30T01:14:49.435Z,14.10
2023-03-30T01:16:54.011Z,14.20
2023-03-30T01:18:58.415Z,14.10
2023-03-30T01:21:32.488Z,14.00
2023-03-30T01:23:49.336Z,14.10
2023-03-30T01:25:58.770Z,14.10
2023-03-30T01:28:09.106Z,14.20
2023-03-30T01:30:16.876Z,14.00
2023-03-30T01:32:30.307Z,14.00
2023-03-30T01:34:37.802Z,14.00
2023-03-30T01:37:14.326Z,14.00
2023-03-30T01:41:46.661Z,14.00
2023-03-30T01:43:51.380Z,14.00
2023-03-30T01:45:56.083Z,13.90
2023-03-30T01:48:00.753Z,14.00
2023-03-30T01:50:06.008Z,14.10
2023-03-30T01:52:11.448Z,14.20
2023-03-30T01:54:16.330Z,14.20
2023-03-30T01:56:21.324Z,14.40
2023-03-30T01:58:25.828Z,14.40
2023-03-30T02:00:28.832Z,14.40
2023-03-30T02:02:32.614Z,14.50
2023-03-30T02:04:38.859Z,14.60
2023-03-30T02:06:43.104Z,14.70
2023-03-30T02:08:48.781Z,15.00
2023-03-30T02:10:52.896Z,15.20
2023-03-30T02:12:56.076Z,15.40
2023-03-30T02:15:00.885Z,15.40
2023-03-30T02:17:06.269Z,15.30
2023-03-30T02:19:09.043Z,15.40
2023-03-30T02:21:11.800Z,15.40
2023-03-30T02:23:15.827Z,15.30
2023-03-30T02:25:18.590Z,15.30
2023-03-30T02:27:22.381Z,15.30
2023-03-30T02:29:25.025Z,15.20
2023-03-30T02:31:27.564Z,15.20
2023-03-30T02:33:32.059Z,15.10
2023-03-30T02:35:53.915Z,15.10
2023-03-30T02:38:15.707Z,15.00
2023-03-30T02:40:26.875Z,15.10
2023-03-30T02:42:48.919Z,15.10
2023-03-30T02:44:53.824Z,15.10
2023-03-30T02:47:01.015Z,15.20
2023-03-30T02:49:07.750Z,15.20
2023-03-30T02:51:18.434Z,15.10
2023-03-30T02:53:25.766Z,15.20
2023-03-30T02:55:32.572Z,15.20
2023-03-30T02:57:38.763Z,15.20
2023-03-30T02:59:44.936Z,15.20
2023-03-30T03:01:50.163Z,15.20
2023-03-30T03:03:53.736Z,15.20
2023-03-30T03:05:56.499Z,15.20
2023-03-30T03:08:00.998Z,15.20
2023-03-30T03:10:05.408Z,15.10
2023-03-30T03:12:08.254Z,15.20
2023-03-30T03:14:12.980Z,15.20
2023-03-30T03:16:15.844Z,15.30
2023-03-30T03:18:20.224Z,15.30
2023-03-30T03:20:23.061Z,15.40
2023-03-30T03:22:25.608Z,15.40
2023-03-30T03:24:28.591Z,15.40
2023-03-30T03:26:33.337Z,15.50
2023-03-30T03:28:35.996Z,15.40
2023-03-30T03:30:40.439Z,15.40
2023-03-30T03:32:44.894Z,15.50
2023-03-30T03:34:47.840Z,15.50
2023-03-30T03:36:52.960Z,15.40
2023-03-30T03:38:56.113Z,15.40
2023-03-30T03:40:59.058Z,15.30
2023-03-30T03:43:01.921Z,15.30
2023-03-30T03:45:05.730Z,15.20
2023-03-30T03:47:08.504Z,15.10
2023-03-30T03:49:11.277Z,15.10
2023-03-30T03:51:13.899Z,15.20
2023-03-30T03:53:16.681Z,15.20
2023-03-30T03:55:19.453Z,15.20
2023-03-30T03:57:23.405Z,15.20
2023-03-30T03:59:26.230Z,15.10
2023-03-30T04:01:30.060Z,15.10
2023-03-30T04:03:32.976Z,15.10
2023-03-30T04:05:35.944Z,15.10
2023-03-30T04:07:39.802Z,15.00
2023-03-30T04:09:42.540Z,15.10
2023-03-30T04:11:46.182Z,15.00
2023-03-30T04:13:50.592Z,15.10
2023-03-30T04:15:55.130Z,15.10
2023-03-30T04:17:59.738Z,15.20
2023-03-30T04:20:05.515Z,15.30
2023-03-30T04:22:11.885Z,15.20
2023-03-30T04:24:17.355Z,15.30
2023-03-30T04:26:21.946Z,15.20
2023-03-30T04:28:28.125Z,15.20
2023-03-30T04:30:32.643Z,15.20
2023-03-30T04:32:38.289Z,15.30
2023-03-30T04:34:42.989Z,15.30
2023-03-30T04:36:47.372Z,15.30
2023-03-30T04:38:59.100Z,15.30
2023-03-30T04:41:04.919Z,15.30
2023-03-30T04:43:11.253Z,15.30
2023-03-30T04:45:16.521Z,15.30
2023-03-30T04:47:20.997Z,15.40
2023-03-30T04:49:25.559Z,15.30
2023-03-30T04:51:30.040Z,15.30
2023-03-30T04:53:34.493Z,15.30
2023-03-30T04:55:38.865Z,15.30
2023-03-30T04:57:43.244Z,15.20
2023-03-30T04:59:47.664Z,15.20
2023-03-30T05:01:52.588Z,15.10
2023-03-30T05:03:55.230Z,15.20
2023-03-30T05:05:59.672Z,15.20
2023-03-30T05:08:04.393Z,15.20
2023-03-30T05:10:09.137Z,15.10
2023-03-30T05:12:15.112Z,15.10
2023-03-30T05:14:19.808Z,15.10
2023-03-30T05:16:24.603Z,15.10
2023-03-30T05:18:29.102Z,15.00
2023-03-30T05:20:33.518Z,15.10
2023-03-30T05:22:38.066Z,15.10
2023-03-30T05:24:42.470Z,15.20
2023-03-30T05:26:47.096Z,15.20
2023-03-30T05:28:51.716Z,15.30
2023-03-30T05:30:56.248Z,15.30
2023-03-30T05:33:00.690Z,15.30
2023-03-30T05:35:05.656Z,15.30
2023-03-30T05:37:10.312Z,15.30
2023-03-30T05:39:14.895Z,15.30
2023-03-30T05:41:19.413Z,15.30
2023-03-30T05:43:23.826Z,15.30
2023-03-30T05:45:28.261Z,15.20
2023-03-30T05:47:32.673Z,15.20
2023-03-30T05:49:37.149Z,15.10
2023-03-30T05:51:41.537Z,15.00
2023-03-30T05:56:01.557Z,14.90
2023-03-30T05:58:06.019Z,14.90
2023-03-30T06:00:13.285Z,14.90
2023-03-30T06:02:19.116Z,14.90
2023-03-30T06:04:22.186Z,14.80
2023-03-30T06:06:25.404Z,14.80
2023-03-30T06:08:28.290Z,14.90
2023-03-30T06:10:32.849Z,14.90
2023-03-30T06:12:35.612Z,14.90
2023-03-30T06:14:38.671Z,14.90
2023-03-30T06:16:43.303Z,15.00
2023-03-30T06:18:47.744Z,14.90
2023-03-30T06:20:51.725Z,14.90
2023-03-30T06:22:54.569Z,14.90
2023-03-30T06:24:58.952Z,14.90
2023-03-30T06:27:03.000Z,14.90
2023-03-30T06:29:06.018Z,14.90
2023-03-30T06:31:09.675Z,14.90
2023-03-30T06:33:13.291Z,15.00
2023-03-30T06:35:17.926Z,15.00
2023-03-30T06:37:20.505Z,15.10
2023-03-30T06:39:24.890Z,15.10
2023-03-30T06:41:27.949Z,15.20
2023-03-30T06:43:31.570Z,15.20
2023-03-30T06:45:36.070Z,15.20
2023-03-30T06:47:39.101Z,15.20
2023-03-30T06:49:42.424Z,15.20
2023-03-30T06:51:46.964Z,15.20
2023-03-30T06:53:49.526Z,15.20
2023-03-30T06:55:52.876Z,15.20
2023-03-30T06:57:56.364Z,15.10
2023-03-30T06:59:59.049Z,15.20
2023-03-30T07:02:03.705Z,15.10
2023-03-30T07:04:09.519Z,15.10
2023-03-30T07:06:15.117Z,15.10
2023-03-30T07:08:19.568Z,15.10
2023-03-30T07:10:23.982Z,15.10
2023-03-30T07:12:28.395Z,15.20
2023-03-30T07:14:31.076Z,15.30
2023-03-30T07:16:33.736Z,15.30
2023-03-30T07:18:38.736Z,15.30
2023-03-30T07:20:41.448Z,15.40
2023-03-30T07:22:46.019Z,15.50
2023-03-30T07:24:50.395Z,15.50
2023-03-30T07:26:53.053Z,15.60
2023-03-30T07:28:56.554Z,15.70
2023-03-30T07:31:05.528Z,15.80
2023-03-30T07:33:08.787Z,15.80
2023-03-30T07:35:11.586Z,15.90
2023-03-30T07:37:20.286Z,15.90
2023-03-30T07:39:18.813Z,16.00
2023-03-30T07:41:21.990Z,15.90
2023-03-30T07:43:26.784Z,16.00
2023-03-30T07:45:31.085Z,16.00
2023-03-30T07:47:34.004Z,16.10
2023-03-30T07:49:37.320Z,16.20
2023-03-30T07:51:40.088Z,16.20
2023-03-30T07:53:44.453Z,16.20
2023-03-30T07:55:48.952Z,16.20
2023-03-30T07:57:53.497Z,16.20
2023-03-30T07:59:56.219Z,16.20
2023-03-30T08:02:00.719Z,16.20
2023-03-30T08:04:06.832Z,16.00
2023-03-30T08:06:11.350Z,16.00
2023-03-30T08:08:15.310Z,16.00
2023-03-30T08:10:18.319Z,15.80
2023-03-30T08:12:20.895Z,15.80
2023-03-30T08:14:23.478Z,15.60
2023-03-30T08:16:26.036Z,15.50
2023-03-30T08:18:29.205Z,15.10
2023-03-30T08:20:32.031Z,14.80
2023-03-30T08:22:34.564Z,14.60
2023-03-30T08:24:37.583Z,14.60
2023-03-30T08:26:40.362Z,14.60
2023-03-30T08:28:42.850Z,14.80
2023-03-30T08:30:45.863Z,15.00
2023-03-30T08:32:48.814Z,15.10
2023-03-30T08:34:53.257Z,15.20
2023-03-30T08:36:57.812Z,15.30
2023-03-30T08:39:00.453Z,15.40
2023-03-30T08:41:11.629Z,15.60
2023-03-30T08:43:38.344Z,15.60
2023-03-30T08:45:42.785Z,15.50
2023-03-30T08:48:06.564Z,15.40
2023-03-30T08:50:13.805Z,15.30
2023-03-30T08:52:18.999Z,15.10
2023-03-30T08:54:22.072Z,15.20
2023-03-30T08:56:26.813Z,15.20
2023-03-30T08:58:32.258Z,15.10
2023-03-30T09:00:39.280Z,15.00
2023-03-30T09:02:44.009Z,15.00
2023-03-30T09:04:53.270Z,15.00
2023-03-30T09:06:57.395Z,15.00
2023-03-30T09:09:00.818Z,15.00
2023-03-30T09:11:06.550Z,15.00
2023-03-30T09:13:12.017Z,15.00
2023-03-30T09:15:16.671Z,15.00
2023-03-30T09:17:21.437Z,14.90
2023-03-30T09:19:26.056Z,14.90
2023-03-30T09:21:29.454Z,14.90
2023-03-30T09:23:32.847Z,14.90
2023-03-30T09:25:38.563Z,14.90
2023-03-30T09:27:44.555Z,14.90
2023-03-30T09:29:48.394Z,15.00
2023-03-30T09:31:52.891Z,15.10
2023-03-30T09:33:57.544Z,15.10
2023-03-30T09:36:03.224Z,15.20
2023-03-30T09:38:05.948Z,15.30
2023-03-30T09:40:16.008Z,15.20
2023-03-30T09:42:22.212Z,15.30
2023-03-30T09:44:26.690Z,15.80
2023-03-30T09:46:29.374Z,16.40
2023-03-30T09:48:38.046Z,16.50
2023-03-30T09:50:42.104Z,16.50
2023-03-30T09:52:51.639Z,16.30
2023-03-30T09:54:54.207Z,16.20
2023-03-30T09:56:56.732Z,16.00
2023-03-30T09:59:01.105Z,16.00
2023-03-30T10:01:05.648Z,16.00
2023-03-30T10:03:10.174Z,15.90
2023-03-30T10:05:16.378Z,16.20
2023-03-30T10:07:22.228Z,16.10
2023-03-30T10:09:24.742Z,16.20
2023-03-30T10:11:32.445Z,16.50
2023-03-30T10:13:36.460Z,16.60
2023-03-30T10:15:41.099Z,16.70
2023-03-30T10:17:45.358Z,17.00
2023-03-30T10:19:49.554Z,17.10
2023-03-30T10:21:54.433Z,17.30
2023-03-30T10:24:01.938Z,17.40
2023-03-30T10:26:05.130Z,17.20
2023-03-30T10:28:12.803Z,16.80
2023-03-30T10:30:17.674Z,16.50
2023-03-30T10:32:20.894Z,16.30
2023-03-30T10:34:25.705Z,16.10
2023-03-30T10:36:30.172Z,15.80
2023-03-30T10:38:33.635Z,15.80
2023-03-30T10:40:37.024Z,15.80
2023-03-30T10:42:40.280Z,15.80
2023-03-30T10:44:45.351Z,15.90
2023-03-30T10:46:49.445Z,15.80
2023-03-30T10:48:59.538Z,15.50
2023-03-30T10:51:08.247Z,15.40
2023-03-30T10:53:14.961Z,15.10
2023-03-30T10:55:19.883Z,14.80
2023-03-30T10:57:24.344Z,14.50
2023-03-30T10:59:37.323Z,14.30
2023-03-30T11:01:42.614Z,14.20
2023-03-30T11:03:47.827Z,14.00
2023-03-30T11:05:52.774Z,13.80
2023-03-30T11:07:57.220Z,13.80
2023-03-30T11:10:02.006Z,13.70
2023-03-30T11:12:05.525Z,13.80
2023-03-30T11:14:09.821Z,13.80
2023-03-30T11:16:14.449Z,13.80
2023-03-30T11:18:20.860Z,14.00
2023-03-30T11:20:27.100Z,14.20
2023-03-30T11:22:33.662Z,14.30
2023-03-30T11:24:36.360Z,14.50
2023-03-30T11:26:41.362Z,14.60
2023-03-30T11:28:49.835Z,14.70
2023-03-30T11:30:56.430Z,14.90
2023-03-30T11:33:03.293Z,15.20
2023-03-30T11:35:08.821Z,15.60
2023-03-30T11:37:13.110Z,15.80
2023-03-30T11:39:31.745Z,15.90
2023-03-30T11:41:28.079Z,16.10
2023-03-30T11:43:30.852Z,16.40
2023-03-30T11:45:41.142Z,16.10
2023-03-30T11:47:57.871Z,16.20
2023-03-30T11:50:08.931Z,16.20
2023-03-30T11:52:16.084Z,16.40
2023-03-30T11:54:26.316Z,16.50
2023-03-30T11:56:31.141Z,16.50
2023-03-30T11:58:35.924Z,16.50
2023-03-30T12:00:43.405Z,16.50
2023-03-30T12:02:48.209Z,16.40
2023-03-30T12:04:52.938Z,16.20
2023-03-30T12:06:57.076Z,16.50
2023-03-30T12:09:04.046Z,16.80
2023-03-30T12:11:08.407Z,16.80
2023-03-30T12:13:12.497Z,17.00
2023-03-30T12:15:22.823Z,16.80
2023-03-30T12:17:29.792Z,16.60
2023-03-30T12:19:42.566Z,16.80
2023-03-30T12:21:40.258Z,16.70
2023-03-30T12:23:44.551Z,16.70
2023-03-30T12:25:51.882Z,16.60
2023-03-30T12:27:58.568Z,16.40
2023-03-30T12:30:11.834Z,16.30
2023-03-30T12:32:22.336Z,16.10
2023-03-30T12:34:26.928Z,16.00
2023-03-30T12:36:34.364Z,15.90
2023-03-30T12:38:38.453Z,15.80
2023-03-30T12:40:45.682Z,15.70
2023-03-30T12:42:53.734Z,15.70
2023-03-30T12:45:08.324Z,15.60
2023-03-30T12:47:38.917Z,15.50
2023-03-30T12:49:45.737Z,15.40
2023-03-30T12:51:56.085Z,15.30
2023-03-30T12:54:08.469Z,15.10
2023-03-30T12:56:13.262Z,15.20
2023-03-30T12:58:34.756Z,15.20
2023-03-30T13:00:57.037Z,15.00
2023-03-30T13:03:07.306Z,14.80
2023-03-30T13:05:17.772Z,14.60
2023-03-30T13:07:22.598Z,14.40
2023-03-30T13:09:32.640Z,14.20
2023-03-30T13:11:43.458Z,14.20
2023-03-30T13:16:03.080Z,14.10
2023-03-30T13:18:19.804Z,14.10
2023-03-30T13:20:30.016Z,14.00
2023-03-30T13:22:29.235Z,13.90
2023-03-30T13:24:40.552Z,13.80
2023-03-30T13:26:44.075Z,13.60
2023-03-30T13:28:49.296Z,13.30
2023-03-30T13:30:52.700Z,12.90
2023-03-30T13:32:59.883Z,12.70
2023-03-30T13:35:07.715Z,12.50
2023-03-30T13:37:12.435Z,12.40
2023-03-30T13:39:17.167Z,12.30
2023-03-30T13:41:23.693Z,12.30
2023-03-30T13:43:30.622Z,12.20
2023-03-30T13:45:35.710Z,12.30
2023-03-30T13:47:42.291Z,12.60
2023-03-30T13:49:47.468Z,13.00
2023-03-30T13:51:49.979Z,13.30
2023-03-30T13:53:54.998Z,13.60
2023-03-30T13:55:57.685Z,13.70
2023-03-30T13:58:02.441Z,13.70
2023-03-30T14:00:07.555Z,13.70
2023-03-30T14:02:13.520Z,13.80
2023-03-30T14:04:16.153Z,13.90
2023-03-30T14:06:20.374Z,14.10
2023-03-30T14:08:24.087Z,14.30
2023-03-30T14:10:26.978Z,14.40
2023-03-30T14:12:30.703Z,14.50
2023-03-30T14:14:35.030Z,14.60
2023-03-30T14:16:38.666Z,14.60
2023-03-30T14:18:42.170Z,14.70
2023-03-30T14:20:47.339Z,14.70
2023-03-30T14:22:50.749Z,14.60
2023-03-30T14:24:57.229Z,14.40
2023-03-30T14:27:02.646Z,14.30
2023-03-30T14:29:09.338Z,14.20
2023-03-30T14:31:16.921Z,14.10
2023-03-30T14:33:20.484Z,14.10
2023-03-30T14:35:25.072Z,14.10
2023-03-30T14:37:29.410Z,14.10
2023-03-30T14:39:32.676Z,14.30
2023-03-30T14:41:35.174Z,14.60
2023-03-30T14:43:39.895Z,14.90
2023-03-30T14:45:42.965Z,15.00
2023-03-30T14:47:46.442Z,15.00
2023-03-30T14:49:50.563Z,15.00
2023-03-30T14:51:53.934Z,15.00
2023-03-30T14:53:57.168Z,14.90
2023-03-30T14:56:00.797Z,14.80
2023-03-30T14:58:03.411Z,14.80
2023-03-30T15:00:15.390Z,14.70
2023-03-30T15:02:19.782Z,14.70
2023-03-30T15:04:24.165Z,14.80
2023-03-30T15:06:27.529Z,14.80
2023-03-30T15:08:32.186Z,15.10
2023-03-30T15:10:36.524Z,15.20
2023-03-30T15:12:40.061Z,15.20
2023-03-30T15:14:42.649Z,15.20
2023-03-30T15:16:46.800Z,15.20
2023-03-30T15:18:49.838Z,15.10
2023-03-30T15:20:52.630Z,15.10
2023-03-30T15:22:55.891Z,15.20
2023-03-30T15:27:14.640Z,15.20
2023-03-30T15:29:18.677Z,15.10
2023-03-30T15:31:21.235Z,15.10
2023-03-30T15:33:25.644Z,15.10
2023-03-30T15:35:30.042Z,15.20
2023-03-30T15:37:33.570Z,15.20
2023-03-30T15:39:39.164Z,15.20
2023-03-30T15:41:46.597Z,15.30
2023-03-30T15:43:56.379Z,15.40
2023-03-30T15:46:01.219Z,15.30
2023-03-30T15:48:04.477Z,15.20
2023-03-30T15:50:12.260Z,15.00
2023-03-30T15:52:18.714Z,14.70
2023-03-30T15:54:23.628Z,14.50
2023-03-30T15:56:31.211Z,14.30
2023-03-30T15:58:34.547Z,14.30
2023-03-30T16:00:37.396Z,14.30
2023-03-30T16:02:41.248Z,14.30
2023-03-30T16:04:44.091Z,14.30
2023-03-30T16:06:47.434Z,14.30
2023-03-30T16:08:50.486Z,14.20
2023-03-30T16:10:53.085Z,14.10
2023-03-30T16:12:56.161Z,14.10
2023-03-30T16:14:58.863Z,14.10
2023-03-30T16:17:01.383Z,14.00
2023-03-30T16:19:03.887Z,13.90
2023-03-30T16:21:07.558Z,13.60
2023-03-30T16:23:10.472Z,13.30
2023-03-30T16:25:13.233Z,12.80
2023-03-30T16:27:18.179Z,12.40
2023-03-30T16:29:23.310Z,12.30
2023-03-30T16:31:25.864Z,12.40
2023-03-30T16:33:28.958Z,12.30
2023-03-30T16:35:31.650Z,12.20
2023-03-30T16:37:34.347Z,12.30
2023-03-30T16:39:36.832Z,12.20
2023-03-30T16:41:39.340Z,12.20
2023-03-30T16:43:41.813Z,12.10
2023-03-30T16:45:44.339Z,12.10
2023-03-30T16:47:46.967Z,12.10
2023-03-30T16:49:49.535Z,12.00
2023-03-30T16:51:54.509Z,12.00
2023-03-30T16:53:56.893Z,11.90
2023-03-30T16:56:02.605Z,11.90
2023-03-30T16:58:06.346Z,12.00
2023-03-30T17:00:19.757Z,12.00
2023-03-30T17:02:22.304Z,12.00
2023-03-30T17:04:24.968Z,12.00
2023-03-30T17:06:27.508Z,12.10
2023-03-30T17:08:30.036Z,12.00
2023-03-30T17:10:33.707Z,12.00
2023-03-30T17:12:36.252Z,11.90
2023-03-30T17:14:42.019Z,12.00
2023-03-30T17:16:44.544Z,12.00
2023-03-30T17:18:47.056Z,11.90
2023-03-30T17:20:51.372Z,12.00
2023-03-30T17:22:53.907Z,12.00
2023-03-30T17:24:56.609Z,11.90
2023-03-30T17:27:05.078Z,12.00
2023-03-30T17:29:08.705Z,11.90
2023-03-30T17:31:14.505Z,11.90
2023-03-30T17:33:17.394Z,11.80
2023-03-30T17:35:19.906Z,11.80
2023-03-30T17:37:22.429Z,11.80
2023-03-30T17:39:24.999Z,11.80
2023-03-30T17:41:27.801Z,11.70
2023-03-30T17:43:30.530Z,11.70
2023-03-30T17:45:34.527Z,11.70
2023-03-30T17:47:37.037Z,11.70
2023-03-30T17:49:40.934Z,11.70
2023-03-30T17:51:43.482Z,11.80
2023-03-30T17:53:46.152Z,11.80
2023-03-30T17:58:11.089Z,12.10
2023-03-30T18:00:25.217Z,12.30
2023-03-30T18:02:06.158Z,11.80
2023-03-30T18:02:27.868Z,12.20
2023-03-30T18:04:30.498Z,11.70
2023-03-30T18:06:33.109Z,11.60
2023-03-30T18:08:37.386Z,11.60
2023-03-30T18:10:47.413Z,10.20
2023-03-30T18:13:39.216Z,12.50
2023-03-30T18:15:42.724Z,14.40
2023-03-30T18:17:45.482Z,12.30
2023-03-30T18:19:50.953Z,11.40
2023-03-30T18:21:54.120Z,10.20
2023-03-30T18:23:56.789Z,8.60
2023-03-30T18:25:59.324Z,11.40
2023-03-30T18:28:01.964Z,11.30
2023-03-30T18:30:11.572Z,11.40
2023-03-30T18:32:14.088Z,11.40
2023-03-30T18:34:16.641Z,11.40
2023-03-30T18:36:19.843Z,11.40
2023-03-30T18:38:22.543Z,11.40
2023-03-30T18:40:26.803Z,11.40
2023-03-30T18:42:29.341Z,11.30
2023-03-30T18:44:31.918Z,11.30
2023-03-30T18:46:34.467Z,11.30
2023-03-30T18:48:37.863Z,11.30
2023-03-30T18:50:41.665Z,11.30
2023-03-30T18:52:44.439Z,11.30
2023-03-30T18:54:46.975Z,11.30
2023-03-30T18:56:53.254Z,9.00
2023-03-30T18:58:56.881Z,11.30
2023-03-30T19:00:59.825Z,11.30
2023-03-30T19:03:03.135Z,11.30
2023-03-30T19:05:07.679Z,11.20
2023-03-30T19:07:10.988Z,11.20
2023-03-30T19:09:13.737Z,11.30
2023-03-30T19:11:18.133Z,11.30
2023-03-30T19:13:21.443Z,11.30
2023-03-30T19:15:24.632Z,11.30
2023-03-30T19:17:27.256Z,11.30
2023-03-30T19:19:29.924Z,11.30
2023-03-30T19:21:32.444Z,11.30
2023-03-30T19:23:35.087Z,11.30
2023-03-30T19:25:38.023Z,11.30
2023-03-30T19:27:48.996Z,11.20
2023-03-30T19:29:45.331Z,11.20
2023-03-30T19:31:47.877Z,11.20
2023-03-30T19:33:50.380Z,11.10
2023-03-30T19:35:52.982Z,11.80
2023-03-30T19:37:55.539Z,11.10
2023-03-30T19:39:58.067Z,11.00
2023-03-30T19:42:00.562Z,11.00
2023-03-30T19:44:03.197Z,11.00
2023-03-30T19:46:10.481Z,11.00
2023-03-30T19:48:13.581Z,11.00
2023-03-30T19:50:17.836Z,11.00
2023-03-30T19:52:20.783Z,11.00
2023-03-30T19:54:23.428Z,11.00
2023-03-30T19:56:27.128Z,11.00
2023-03-30T19:58:30.243Z,11.10
2023-03-30T20:00:34.827Z,11.10
2023-03-30T20:02:37.966Z,11.10
2023-03-30T20:04:41.196Z,11.10
2023-03-30T20:06:55.456Z,11.10
2023-03-30T20:09:22.320Z,11.20
2023-03-30T20:11:34.995Z,11.20
2023-03-30T20:13:49.052Z,11.20
2023-03-30T20:16:14.206Z,11.30
2023-03-30T20:18:39.180Z,11.30
2023-03-30T20:20:44.887Z,11.30
2023-03-30T20:22:50.526Z,11.50
2023-03-30T20:24:57.095Z,11.50
2023-03-30T20:27:00.517Z,11.50
2023-03-30T20:29:03.371Z,11.50
2023-03-30T20:31:07.555Z,11.50
2023-03-30T20:33:12.375Z,11.60
2023-03-30T20:35:19.791Z,11.50
2023-03-30T20:37:24.735Z,11.60
2023-03-30T20:39:29.027Z,11.60
2023-03-30T20:41:35.733Z,11.50
2023-03-30T20:43:53.267Z,11.50
2023-03-30T20:45:48.206Z,11.60
2023-03-30T20:47:54.190Z,11.70
2023-03-30T20:49:58.140Z,11.70
2023-03-30T20:52:02.075Z,11.70
2023-03-30T20:54:04.895Z,11.70
2023-03-30T20:56:09.821Z,11.80
2023-03-30T20:58:13.639Z,11.80
2023-03-30T21:00:17.396Z,11.80
2023-03-30T21:02:20.998Z,11.90
2023-03-30T21:04:24.584Z,11.90
2023-03-30T21:06:28.525Z,11.90
2023-03-30T21:08:32.240Z,11.90
2023-03-30T21:10:34.928Z,11.80
2023-03-30T21:12:38.551Z,11.80
2023-03-30T21:14:41.312Z,11.80
2023-03-30T21:16:44.747Z,11.80
2023-03-30T21:18:47.424Z,11.80
2023-03-30T21:20:51.036Z,11.80
2023-03-30T21:22:53.818Z,11.80
2023-03-30T21:24:57.393Z,11.70
2023-03-30T21:27:00.938Z,11.70
2023-03-30T21:29:04.858Z,11.70
2023-03-30T21:31:09.476Z,11.60
2023-03-30T21:33:12.237Z,11.80
2023-03-30T21:35:15.577Z,11.80
2023-03-30T21:37:18.363Z,11.80
2023-03-30T21:39:20.840Z,11.90
2023-03-30T21:41:25.814Z,11.90
2023-03-30T21:43:30.012Z,11.80
2023-03-30T21:45:33.660Z,11.90
2023-03-30T21:47:36.398Z,11.90
2023-03-30T21:49:39.022Z,11.90
2023-03-30T21:51:41.556Z,11.80
2023-03-30T21:53:45.396Z,11.80
2023-03-30T21:55:48.095Z,11.80
2023-03-30T21:57:50.569Z,11.70
2023-03-30T21:59:53.244Z,11.70
2023-03-30T22:01:56.688Z,11.70
2023-03-30T22:03:59.359Z,11.60
2023-03-30T22:06:03.103Z,11.60
2023-03-30T22:08:06.139Z,11.60
2023-03-30T22:10:09.413Z,11.60
2023-03-30T22:12:12.152Z,11.60
2023-03-30T22:14:15.129Z,11.50
2023-03-30T22:16:18.611Z,11.50
2023-03-30T22:18:21.359Z,11.50
2023-03-30T22:20:24.518Z,11.60
2023-03-30T22:22:27.037Z,11.60
2023-03-30T22:24:29.530Z,11.60
2023-03-30T22:26:32.432Z,11.60
2023-03-30T22:28:35.330Z,11.70
2023-03-30T22:30:40.784Z,11.60
2023-03-30T22:32:43.286Z,11.60
2023-03-30T22:34:47.854Z,11.50
2023-03-30T22:36:50.551Z,11.50
2023-03-30T22:38:53.060Z,11.50
2023-03-30T22:41:03.028Z,11.50
2023-03-30T22:43:04.527Z,11.50
2023-03-30T22:45:08.721Z,11.50
2023-03-30T22:47:11.295Z,11.50
2023-03-30T22:49:14.960Z,11.40
2023-03-30T22:51:20.029Z,11.40
2023-03-30T22:53:22.482Z,11.40
2023-03-30T22:55:24.995Z,11.30
2023-03-30T22:57:27.840Z,11.30
2023-03-30T22:59:30.392Z,11.30
2023-03-30T23:01:33.047Z,11.30
2023-03-30T23:03:35.696Z,11.20
2023-03-30T23:05:38.584Z,11.20
2023-03-30T23:07:43.086Z,11.20
2023-03-30T23:09:46.752Z,11.20
2023-03-30T23:11:49.752Z,11.20
2023-03-30T23:14:09.436Z,11.20
2023-03-30T23:16:13.795Z,11.10
2023-03-30T23:18:18.128Z,11.10
2023-03-30T23:20:20.703Z,11.10
2023-03-30T23:22:23.555Z,11.10
2023-03-30T23:24:26.489Z,11.10
2023-03-30T23:26:29.262Z,11.20
2023-03-30T23:28:31.732Z,11.20
2023-03-30T23:30:36.038Z,11.20
2023-03-30T23:32:38.704Z,11.20
2023-03-30T23:34:41.813Z,11.30
2023-03-30T23:36:44.312Z,11.30
2023-03-30T23:38:47.136Z,11.40
2023-03-30T23:40:49.818Z,11.40
2023-03-30T23:42:52.300Z,11.40
2023-03-30T23:44:54.802Z,11.50
2023-03-30T23:46:57.639Z,11.40
2023-03-30T23:49:00.489Z,11.50
2023-03-30T23:51:03.302Z,11.40
2023-03-30T23:53:06.392Z,11.40
2023-03-30T23:55:09.130Z,11.40
2023-03-30T23:57:11.716Z,11.40
2023-03-30T23:59:14.372Z,11.50
